sensor_id;sensor_type;location;lat;lon;timestamp;temperature;humidity
17202;DHT22;8717;53.588;10.176;2024-02-15T00:01:04;10.40;99.90
17202;DHT22;8717;53.588;10.176;2024-02-15T00:03:32;10.40;99.90
17202;DHT22;8717;53.588;10.176;2024-02-15T00:06:01;10.40;99.90
17202;DHT22;8717;53.588;10.176;2024-02-15T00:08:29;10.40;99.90
17202;DHT22;8717;53.588;10.176;2024-02-15T00:10:56;10.40;99.90
17202;DHT22;8717;53.588;10.176;2024-02-15T00:13:22;10.40;99.90
17202;DHT22;8717;53.588;10.176;2024-02-15T00:15:49;10.40;99.90
17202;DHT22;8717;53.588;10.176;2024-02-15T00:18:16;10.40;99.90
17202;DHT22;8717;53.588;10.176;2024-02-15T00:20:44;10.40;99.90
17202;DHT22;8717;53.588;10.176;2024-02-15T00:23:11;10.40;99.90
17202;DHT22;8717;53.588;10.176;2024-02-15T00:25:38;10.40;99.90
17202;DHT22;8717;53.588;10.176;2024-02-15T00:28:05;10.40;99.90
17202;DHT22;8717;53.588;10.176;2024-02-15T00:30:33;10.40;99.90
17202;DHT22;8717;53.588;10.176;2024-02-15T00:32:59;10.40;99.90
17202;DHT22;8717;53.588;10.176;2024-02-15T00:35:28;10.40;99.90
17202;DHT22;8717;53.588;10.176;2024-02-15T00:37:56;10.50;99.90
17202;DHT22;8717;53.588;10.176;2024-02-15T00:40:23;10.50;99.90
17202;DHT22;8717;53.588;10.176;2024-02-15T00:42:50;10.50;99.90
17202;DHT22;8717;53.588;10.176;2024-02-15T00:45:16;10.50;99.90
17202;DHT22;8717;53.588;10.176;2024-02-15T00:47:43;10.50;99.90
17202;DHT22;8717;53.588;10.176;2024-02-15T00:50:10;10.50;99.90
17202;DHT22;8717;53.588;10.176;2024-02-15T00:52:37;10.50;99.90
17202;DHT22;8717;53.588;10.176;2024-02-15T00:55:17;10.50;99.90
17202;DHT22;8717;53.588;10.176;2024-02-15T00:57:44;10.60;99.90
17202;DHT22;8717;53.588;10.176;2024-02-15T01:00:12;10.60;99.90
17202;DHT22;8717;53.588;10.176;2024-02-15T01:02:39;10.50;99.90
17202;DHT22;8717;53.588;10.176;2024-02-15T01:05:07;10.50;99.90
17202;DHT22;8717;53.588;10.176;2024-02-15T01:07:35;10.50;99.90
17202;DHT22;8717;53.588;10.176;2024-02-15T01:10:02;10.50;99.90
17202;DHT22;8717;53.588;10.176;2024-02-15T01:12:31;10.60;99.90
17202;DHT22;8717;53.588;10.176;2024-02-15T01:14:58;10.60;99.90
17202;DHT22;8717;53.588;10.176;2024-02-15T01:17:25;10.60;99.90
17202;DHT22;8717;53.588;10.176;2024-02-15T01:19:52;10.60;99.90
17202;DHT22;8717;53.588;10.176;2024-02-15T01:22:19;10.60;99.90
17202;DHT22;8717;53.588;10.176;2024-02-15T01:24:49;10.60;99.90
17202;DHT22;8717;53.588;10.176;2024-02-15T01:27:16;10.60;99.90
17202;DHT22;8717;53.588;10.176;2024-02-15T01:29:44;10.60;99.90
17202;DHT22;8717;53.588;10.176;2024-02-15T01:32:11;10.60;99.90
17202;DHT22;8717;53.588;10.176;2024-02-15T01:34:38;10.60;99.90
17202;DHT22;8717;53.588;10.176;2024-02-15T01:37:06;10.60;99.90
17202;DHT22;8717;53.588;10.176;2024-02-15T01:39:33;10.70;99.90
17202;DHT22;8717;53.588;10.176;2024-02-15T01:42:00;10.70;99.90
17202;DHT22;8717;53.588;10.176;2024-02-15T01:44:28;10.70;99.90
17202;DHT22;8717;53.588;10.176;2024-02-15T01:46:57;10.70;99.90
17202;DHT22;8717;53.588;10.176;2024-02-15T01:49:26;10.70;99.90
17202;DHT22;8717;53.588;10.176;2024-02-15T01:51:56;10.70;99.90
17202;DHT22;8717;53.588;10.176;2024-02-15T01:54:23;10.70;99.90
17202;DHT22;8717;53.588;10.176;2024-02-15T01:56:51;10.70;99.90
17202;DHT22;8717;53.588;10.176;2024-02-15T01:59:19;10.70;99.90
17202;DHT22;8717;53.588;10.176;2024-02-15T02:01:48;10.70;99.90
17202;DHT22;8717;53.588;10.176;2024-02-15T02:04:17;10.70;99.90
17202;DHT22;8717;53.588;10.176;2024-02-15T02:06:44;10.70;99.90
17202;DHT22;8717;53.588;10.176;2024-02-15T02:09:12;10.70;99.90
17202;DHT22;8717;53.588;10.176;2024-02-15T02:11:40;10.70;99.90
17202;DHT22;8717;53.588;10.176;2024-02-15T02:14:06;10.70;99.90
17202;DHT22;8717;53.588;10.176;2024-02-15T02:16:34;10.70;99.90
17202;DHT22;8717;53.588;10.176;2024-02-15T02:19:01;10.70;99.90
17202;DHT22;8717;53.588;10.176;2024-02-15T02:21:35;10.70;99.90
17202;DHT22;8717;53.588;10.176;2024-02-15T02:24:04;10.70;99.90
17202;DHT22;8717;53.588;10.176;2024-02-15T02:26:35;10.70;99.90
17202;DHT22;8717;53.588;10.176;2024-02-15T02:29:02;10.80;99.90
17202;DHT22;8717;53.588;10.176;2024-02-15T02:31:32;10.80;99.90
17202;DHT22;8717;53.588;10.176;2024-02-15T02:34:00;10.80;99.90
17202;DHT22;8717;53.588;10.176;2024-02-15T02:36:27;10.80;99.90
17202;DHT22;8717;53.588;10.176;2024-02-15T02:38:54;10.80;99.90
17202;DHT22;8717;53.588;10.176;2024-02-15T02:41:25;10.80;99.90
17202;DHT22;8717;53.588;10.176;2024-02-15T02:43:55;10.80;99.90
17202;DHT22;8717;53.588;10.176;2024-02-15T02:46:22;10.80;99.90
17202;DHT22;8717;53.588;10.176;2024-02-15T02:48:49;10.80;99.90
17202;DHT22;8717;53.588;10.176;2024-02-15T02:51:16;10.80;99.90
17202;DHT22;8717;53.588;10.176;2024-02-15T02:53:43;10.70;99.90
17202;DHT22;8717;53.588;10.176;2024-02-15T02:56:10;10.80;99.90
17202;DHT22;8717;53.588;10.176;2024-02-15T02:58:38;10.80;99.90
17202;DHT22;8717;53.588;10.176;2024-02-15T03:01:09;10.80;99.90
17202;DHT22;8717;53.588;10.176;2024-02-15T03:03:36;10.80;99.90
17202;DHT22;8717;53.588;10.176;2024-02-15T03:06:04;10.80;99.90
17202;DHT22;8717;53.588;10.176;2024-02-15T03:08:31;10.80;99.90
17202;DHT22;8717;53.588;10.176;2024-02-15T03:10:59;10.80;99.90
17202;DHT22;8717;53.588;10.176;2024-02-15T03:13:26;10.80;99.90
17202;DHT22;8717;53.588;10.176;2024-02-15T03:15:53;10.80;99.90
17202;DHT22;8717;53.588;10.176;2024-02-15T03:18:21;10.80;99.90
17202;DHT22;8717;53.588;10.176;2024-02-15T03:20:49;10.80;99.90
17202;DHT22;8717;53.588;10.176;2024-02-15T03:23:16;10.80;99.90
17202;DHT22;8717;53.588;10.176;2024-02-15T03:25:43;10.80;99.90
17202;DHT22;8717;53.588;10.176;2024-02-15T03:28:10;10.80;99.90
17202;DHT22;8717;53.588;10.176;2024-02-15T03:30:36;10.80;99.90
17202;DHT22;8717;53.588;10.176;2024-02-15T03:33:04;10.80;99.90
17202;DHT22;8717;53.588;10.176;2024-02-15T03:35:32;10.80;99.90
17202;DHT22;8717;53.588;10.176;2024-02-15T03:38:00;10.80;99.90
17202;DHT22;8717;53.588;10.176;2024-02-15T03:40:27;10.80;99.90
17202;DHT22;8717;53.588;10.176;2024-02-15T03:42:55;10.80;99.90
17202;DHT22;8717;53.588;10.176;2024-02-15T03:45:23;10.80;99.90
17202;DHT22;8717;53.588;10.176;2024-02-15T03:47:51;10.90;99.90
17202;DHT22;8717;53.588;10.176;2024-02-15T03:50:18;10.80;99.90
17202;DHT22;8717;53.588;10.176;2024-02-15T03:52:49;10.80;99.90
17202;DHT22;8717;53.588;10.176;2024-02-15T03:55:16;10.80;99.90
17202;DHT22;8717;53.588;10.176;2024-02-15T03:57:43;10.80;99.90
17202;DHT22;8717;53.588;10.176;2024-02-15T04:00:12;10.80;99.90
17202;DHT22;8717;53.588;10.176;2024-02-15T04:02:40;10.80;99.90
17202;DHT22;8717;53.588;10.176;2024-02-15T04:05:07;10.80;99.90
17202;DHT22;8717;53.588;10.176;2024-02-15T04:07:35;10.80;99.90
17202;DHT22;8717;53.588;10.176;2024-02-15T04:10:05;10.90;99.90
17202;DHT22;8717;53.588;10.176;2024-02-15T04:12:34;10.80;99.90
17202;DHT22;8717;53.588;10.176;2024-02-15T04:15:01;10.80;99.90
17202;DHT22;8717;53.588;10.176;2024-02-15T04:17:31;10.80;99.90
17202;DHT22;8717;53.588;10.176;2024-02-15T04:20:00;10.90;99.90
17202;DHT22;8717;53.588;10.176;2024-02-15T04:22:29;10.90;99.90
17202;DHT22;8717;53.588;10.176;2024-02-15T04:24:57;10.90;99.90
17202;DHT22;8717;53.588;10.176;2024-02-15T04:27:25;10.90;99.90
17202;DHT22;8717;53.588;10.176;2024-02-15T04:29:52;10.90;99.90
17202;DHT22;8717;53.588;10.176;2024-02-15T04:32:21;10.90;99.90
17202;DHT22;8717;53.588;10.176;2024-02-15T04:34:48;10.90;99.90
17202;DHT22;8717;53.588;10.176;2024-02-15T04:37:14;10.90;99.90
17202;DHT22;8717;53.588;10.176;2024-02-15T04:39:42;10.90;99.90
17202;DHT22;8717;53.588;10.176;2024-02-15T04:42:09;10.90;99.90
17202;DHT22;8717;53.588;10.176;2024-02-15T04:44:39;10.90;99.90
17202;DHT22;8717;53.588;10.176;2024-02-15T04:47:06;10.90;99.90
17202;DHT22;8717;53.588;10.176;2024-02-15T04:49:34;10.90;99.90
17202;DHT22;8717;53.588;10.176;2024-02-15T04:52:04;10.90;99.90
17202;DHT22;8717;53.588;10.176;2024-02-15T04:54:32;10.90;99.90
17202;DHT22;8717;53.588;10.176;2024-02-15T04:56:59;11.00;99.90
17202;DHT22;8717;53.588;10.176;2024-02-15T04:59:26;10.90;99.90
17202;DHT22;8717;53.588;10.176;2024-02-15T05:01:56;10.90;99.90
17202;DHT22;8717;53.588;10.176;2024-02-15T05:04:22;10.90;99.90
17202;DHT22;8717;53.588;10.176;2024-02-15T05:06:50;10.90;99.90
17202;DHT22;8717;53.588;10.176;2024-02-15T05:09:16;10.90;99.90
17202;DHT22;8717;53.588;10.176;2024-02-15T05:11:44;10.90;99.90
17202;DHT22;8717;53.588;10.176;2024-02-15T05:14:14;10.90;99.90
17202;DHT22;8717;53.588;10.176;2024-02-15T05:16:45;11.00;99.90
17202;DHT22;8717;53.588;10.176;2024-02-15T05:19:15;11.00;99.90
17202;DHT22;8717;53.588;10.176;2024-02-15T05:21:42;11.00;99.90
17202;DHT22;8717;53.588;10.176;2024-02-15T05:24:10;11.00;99.90
17202;DHT22;8717;53.588;10.176;2024-02-15T05:26:39;11.00;99.90
17202;DHT22;8717;53.588;10.176;2024-02-15T05:29:08;11.00;99.90
17202;DHT22;8717;53.588;10.176;2024-02-15T05:31:35;11.00;99.90
17202;DHT22;8717;53.588;10.176;2024-02-15T05:34:05;11.00;99.90
17202;DHT22;8717;53.588;10.176;2024-02-15T05:36:34;11.00;99.90
17202;DHT22;8717;53.588;10.176;2024-02-15T05:39:01;11.00;99.90
17202;DHT22;8717;53.588;10.176;2024-02-15T05:41:29;11.00;99.90
17202;DHT22;8717;53.588;10.176;2024-02-15T05:43:58;11.00;99.90
17202;DHT22;8717;53.588;10.176;2024-02-15T05:46:25;11.00;99.90
17202;DHT22;8717;53.588;10.176;2024-02-15T05:48:53;11.00;99.90
17202;DHT22;8717;53.588;10.176;2024-02-15T05:51:21;11.10;99.90
17202;DHT22;8717;53.588;10.176;2024-02-15T05:53:49;11.00;99.90
17202;DHT22;8717;53.588;10.176;2024-02-15T05:56:16;11.00;99.90
17202;DHT22;8717;53.588;10.176;2024-02-15T05:58:43;11.00;99.90
17202;DHT22;8717;53.588;10.176;2024-02-15T06:01:09;11.00;99.90
17202;DHT22;8717;53.588;10.176;2024-02-15T06:03:38;11.00;99.90
17202;DHT22;8717;53.588;10.176;2024-02-15T06:06:06;11.00;99.90
17202;DHT22;8717;53.588;10.176;2024-02-15T06:08:33;11.00;99.90
17202;DHT22;8717;53.588;10.176;2024-02-15T06:11:02;11.00;99.90
17202;DHT22;8717;53.588;10.176;2024-02-15T06:13:29;11.00;99.90
17202;DHT22;8717;53.588;10.176;2024-02-15T06:15:56;11.00;99.90
17202;DHT22;8717;53.588;10.176;2024-02-15T06:18:24;11.00;99.90
17202;DHT22;8717;53.588;10.176;2024-02-15T06:20:53;11.00;99.90
17202;DHT22;8717;53.588;10.176;2024-02-15T06:23:22;11.10;99.90
17202;DHT22;8717;53.588;10.176;2024-02-15T06:25:51;11.00;99.90
17202;DHT22;8717;53.588;10.176;2024-02-15T06:28:20;11.00;99.90
17202;DHT22;8717;53.588;10.176;2024-02-15T06:31:01;11.00;99.90
17202;DHT22;8717;53.588;10.176;2024-02-15T06:33:46;11.00;99.90
17202;DHT22;8717;53.588;10.176;2024-02-15T06:36:30;11.00;99.90
17202;DHT22;8717;53.588;10.176;2024-02-15T06:39:14;11.00;99.90
17202;DHT22;8717;53.588;10.176;2024-02-15T06:41:59;11.00;99.90
17202;DHT22;8717;53.588;10.176;2024-02-15T06:44:27;11.00;99.90
17202;DHT22;8717;53.588;10.176;2024-02-15T06:46:54;11.00;99.90
17202;DHT22;8717;53.588;10.176;2024-02-15T06:49:23;11.00;99.90
17202;DHT22;8717;53.588;10.176;2024-02-15T06:51:51;11.00;99.90
17202;DHT22;8717;53.588;10.176;2024-02-15T06:54:18;11.00;99.90
17202;DHT22;8717;53.588;10.176;2024-02-15T06:56:45;11.00;99.90
17202;DHT22;8717;53.588;10.176;2024-02-15T06:59:13;11.00;99.90
17202;DHT22;8717;53.588;10.176;2024-02-15T07:01:42;11.00;99.90
17202;DHT22;8717;53.588;10.176;2024-02-15T07:04:08;11.00;99.90
17202;DHT22;8717;53.588;10.176;2024-02-15T07:06:36;11.10;99.90
17202;DHT22;8717;53.588;10.176;2024-02-15T07:09:03;11.10;99.90
17202;DHT22;8717;53.588;10.176;2024-02-15T07:11:31;11.10;99.90
17202;DHT22;8717;53.588;10.176;2024-02-15T07:13:58;11.10;99.90
17202;DHT22;8717;53.588;10.176;2024-02-15T07:16:24;11.10;99.90
17202;DHT22;8717;53.588;10.176;2024-02-15T07:18:53;11.10;99.90
17202;DHT22;8717;53.588;10.176;2024-02-15T07:21:20;11.10;99.90
17202;DHT22;8717;53.588;10.176;2024-02-15T07:23:51;11.10;99.90
17202;DHT22;8717;53.588;10.176;2024-02-15T07:26:20;11.10;99.90
17202;DHT22;8717;53.588;10.176;2024-02-15T07:28:50;11.10;99.90
17202;DHT22;8717;53.588;10.176;2024-02-15T07:31:18;11.10;99.90
17202;DHT22;8717;53.588;10.176;2024-02-15T07:33:47;11.10;99.90
17202;DHT22;8717;53.588;10.176;2024-02-15T07:36:18;11.10;99.90
17202;DHT22;8717;53.588;10.176;2024-02-15T07:38:47;11.10;99.90
17202;DHT22;8717;53.588;10.176;2024-02-15T07:41:14;11.10;99.90
17202;DHT22;8717;53.588;10.176;2024-02-15T07:43:41;11.20;99.90
17202;DHT22;8717;53.588;10.176;2024-02-15T07:46:11;11.10;99.90
17202;DHT22;8717;53.588;10.176;2024-02-15T07:48:38;11.20;99.90
17202;DHT22;8717;53.588;10.176;2024-02-15T07:51:11;11.20;99.90
17202;DHT22;8717;53.588;10.176;2024-02-15T07:53:39;11.20;99.90
17202;DHT22;8717;53.588;10.176;2024-02-15T07:56:08;11.20;99.90
17202;DHT22;8717;53.588;10.176;2024-02-15T07:58:38;11.20;99.90
17202;DHT22;8717;53.588;10.176;2024-02-15T08:01:06;11.20;99.90
17202;DHT22;8717;53.588;10.176;2024-02-15T08:03:33;11.30;99.90
17202;DHT22;8717;53.588;10.176;2024-02-15T08:06:00;11.30;99.90
17202;DHT22;8717;53.588;10.176;2024-02-15T08:08:32;11.40;99.90
17202;DHT22;8717;53.588;10.176;2024-02-15T08:11:02;11.30;99.90
17202;DHT22;8717;53.588;10.176;2024-02-15T08:13:29;11.30;99.90
17202;DHT22;8717;53.588;10.176;2024-02-15T08:15:56;11.30;99.90
17202;DHT22;8717;53.588;10.176;2024-02-15T08:18:23;11.30;99.90
17202;DHT22;8717;53.588;10.176;2024-02-15T08:20:51;11.40;99.90
17202;DHT22;8717;53.588;10.176;2024-02-15T08:23:18;11.40;99.90
17202;DHT22;8717;53.588;10.176;2024-02-15T08:25:45;11.40;99.90
17202;DHT22;8717;53.588;10.176;2024-02-15T08:28:13;11.50;99.90
17202;DHT22;8717;53.588;10.176;2024-02-15T08:30:40;11.50;99.90
17202;DHT22;8717;53.588;10.176;2024-02-15T08:33:07;11.50;99.90
17202;DHT22;8717;53.588;10.176;2024-02-15T08:35:36;11.50;99.90
17202;DHT22;8717;53.588;10.176;2024-02-15T08:38:03;11.60;99.90
17202;DHT22;8717;53.588;10.176;2024-02-15T08:40:31;11.50;99.90
17202;DHT22;8717;53.588;10.176;2024-02-15T08:42:58;11.50;99.90
17202;DHT22;8717;53.588;10.176;2024-02-15T08:45:26;11.50;99.90
17202;DHT22;8717;53.588;10.176;2024-02-15T08:47:52;11.50;99.90
17202;DHT22;8717;53.588;10.176;2024-02-15T08:50:19;11.60;99.90
17202;DHT22;8717;53.588;10.176;2024-02-15T08:52:49;11.60;99.90
17202;DHT22;8717;53.588;10.176;2024-02-15T08:55:16;11.60;99.90
17202;DHT22;8717;53.588;10.176;2024-02-15T08:57:43;11.60;99.90
17202;DHT22;8717;53.588;10.176;2024-02-15T09:00:12;11.60;99.90
17202;DHT22;8717;53.588;10.176;2024-02-15T09:02:43;11.70;99.90
17202;DHT22;8717;53.588;10.176;2024-02-15T09:05:10;11.70;99.90
17202;DHT22;8717;53.588;10.176;2024-02-15T09:07:39;11.70;99.90
17202;DHT22;8717;53.588;10.176;2024-02-15T09:10:10;11.70;99.90
17202;DHT22;8717;53.588;10.176;2024-02-15T09:12:38;11.80;99.90
17202;DHT22;8717;53.588;10.176;2024-02-15T09:15:06;11.80;99.90
17202;DHT22;8717;53.588;10.176;2024-02-15T09:17:34;11.80;99.90
17202;DHT22;8717;53.588;10.176;2024-02-15T09:20:08;11.80;99.90
17202;DHT22;8717;53.588;10.176;2024-02-15T09:22:40;11.90;99.90
17202;DHT22;8717;53.588;10.176;2024-02-15T09:25:08;11.90;99.90
17202;DHT22;8717;53.588;10.176;2024-02-15T09:27:35;11.90;99.90
17202;DHT22;8717;53.588;10.176;2024-02-15T09:30:02;11.90;99.90
17202;DHT22;8717;53.588;10.176;2024-02-15T09:32:33;12.00;99.90
17202;DHT22;8717;53.588;10.176;2024-02-15T09:35:01;12.00;99.90
17202;DHT22;8717;53.588;10.176;2024-02-15T09:37:29;12.00;99.90
17202;DHT22;8717;53.588;10.176;2024-02-15T09:39:55;12.10;99.90
17202;DHT22;8717;53.588;10.176;2024-02-15T09:42:24;12.10;99.90
17202;DHT22;8717;53.588;10.176;2024-02-15T09:44:51;12.10;99.90
17202;DHT22;8717;53.588;10.176;2024-02-15T09:47:18;12.20;99.90
17202;DHT22;8717;53.588;10.176;2024-02-15T09:49:45;12.20;99.90
17202;DHT22;8717;53.588;10.176;2024-02-15T09:52:13;12.20;99.90
17202;DHT22;8717;53.588;10.176;2024-02-15T09:54:44;12.30;99.90
17202;DHT22;8717;53.588;10.176;2024-02-15T09:57:11;12.40;99.90
17202;DHT22;8717;53.588;10.176;2024-02-15T09:59:39;12.30;99.90
17202;DHT22;8717;53.588;10.176;2024-02-15T10:02:07;12.40;99.90
17202;DHT22;8717;53.588;10.176;2024-02-15T10:04:37;12.30;99.90
17202;DHT22;8717;53.588;10.176;2024-02-15T10:07:04;12.30;99.90
17202;DHT22;8717;53.588;10.176;2024-02-15T10:09:34;12.40;99.90
17202;DHT22;8717;53.588;10.176;2024-02-15T10:12:04;12.30;99.90
17202;DHT22;8717;53.588;10.176;2024-02-15T10:14:34;12.30;99.90
17202;DHT22;8717;53.588;10.176;2024-02-15T10:17:06;12.30;99.90
17202;DHT22;8717;53.588;10.176;2024-02-15T10:19:35;12.30;99.90
17202;DHT22;8717;53.588;10.176;2024-02-15T10:22:06;12.40;99.90
17202;DHT22;8717;53.588;10.176;2024-02-15T10:24:33;12.30;99.90
17202;DHT22;8717;53.588;10.176;2024-02-15T10:27:03;12.30;99.90
17202;DHT22;8717;53.588;10.176;2024-02-15T10:29:32;12.30;99.90
17202;DHT22;8717;53.588;10.176;2024-02-15T10:32:00;12.20;99.90
17202;DHT22;8717;53.588;10.176;2024-02-15T10:34:28;12.20;99.90
17202;DHT22;8717;53.588;10.176;2024-02-15T10:37:09;12.20;99.90
17202;DHT22;8717;53.588;10.176;2024-02-15T10:39:36;12.20;99.90
17202;DHT22;8717;53.588;10.176;2024-02-15T10:42:06;12.20;99.90
17202;DHT22;8717;53.588;10.176;2024-02-15T10:44:36;12.20;99.90
17202;DHT22;8717;53.588;10.176;2024-02-15T10:47:04;12.20;99.90
17202;DHT22;8717;53.588;10.176;2024-02-15T10:49:34;12.20;99.90
17202;DHT22;8717;53.588;10.176;2024-02-15T10:52:01;12.20;99.90
17202;DHT22;8717;53.588;10.176;2024-02-15T10:54:43;12.20;99.90
17202;DHT22;8717;53.588;10.176;2024-02-15T10:57:16;12.20;99.90
17202;DHT22;8717;53.588;10.176;2024-02-15T10:59:54;12.20;99.90
17202;DHT22;8717;53.588;10.176;2024-02-15T11:02:26;12.20;99.90
17202;DHT22;8717;53.588;10.176;2024-02-15T11:04:59;12.30;99.90
17202;DHT22;8717;53.588;10.176;2024-02-15T11:07:31;12.30;99.90
17202;DHT22;8717;53.588;10.176;2024-02-15T11:09:58;12.30;99.90
17202;DHT22;8717;53.588;10.176;2024-02-15T11:12:28;12.30;99.90
17202;DHT22;8717;53.588;10.176;2024-02-15T11:14:56;12.40;99.90
17202;DHT22;8717;53.588;10.176;2024-02-15T11:17:45;12.40;99.90
17202;DHT22;8717;53.588;10.176;2024-02-15T11:20:48;12.40;99.90
17202;DHT22;8717;53.588;10.176;2024-02-15T11:23:27;12.50;99.90
17202;DHT22;8717;53.588;10.176;2024-02-15T11:25:54;12.50;99.90
17202;DHT22;8717;53.588;10.176;2024-02-15T11:28:39;12.50;99.90
17202;DHT22;8717;53.588;10.176;2024-02-15T11:31:09;12.50;99.90
17202;DHT22;8717;53.588;10.176;2024-02-15T11:33:38;12.60;99.90
17202;DHT22;8717;53.588;10.176;2024-02-15T11:36:06;12.60;99.90
17202;DHT22;8717;53.588;10.176;2024-02-15T11:38:33;12.60;99.90
17202;DHT22;8717;53.588;10.176;2024-02-15T11:41:04;12.60;99.90
17202;DHT22;8717;53.588;10.176;2024-02-15T11:43:52;12.60;99.90
17202;DHT22;8717;53.588;10.176;2024-02-15T11:46:24;12.60;99.90
17202;DHT22;8717;53.588;10.176;2024-02-15T11:48:55;12.60;99.90
17202;DHT22;8717;53.588;10.176;2024-02-15T11:51:30;12.50;99.90
17202;DHT22;8717;53.588;10.176;2024-02-15T11:54:06;12.50;99.90
17202;DHT22;8717;53.588;10.176;2024-02-15T11:56:52;12.50;99.90
17202;DHT22;8717;53.588;10.176;2024-02-15T11:59:38;12.40;99.90
17202;DHT22;8717;53.588;10.176;2024-02-15T12:02:18;12.40;99.90
17202;DHT22;8717;53.588;10.176;2024-02-15T12:05:04;12.40;99.90
17202;DHT22;8717;53.588;10.176;2024-02-15T12:07:53;12.40;99.90
17202;DHT22;8717;53.588;10.176;2024-02-15T12:10:38;12.40;99.90
17202;DHT22;8717;53.588;10.176;2024-02-15T12:13:22;12.40;99.90
17202;DHT22;8717;53.588;10.176;2024-02-15T12:16:08;12.30;99.90
17202;DHT22;8717;53.588;10.176;2024-02-15T12:18:52;12.30;99.90
17202;DHT22;8717;53.588;10.176;2024-02-15T12:21:21;12.30;99.90
17202;DHT22;8717;53.588;10.176;2024-02-15T12:23:52;12.20;99.90
17202;DHT22;8717;53.588;10.176;2024-02-15T12:26:19;12.20;99.90
17202;DHT22;8717;53.588;10.176;2024-02-15T12:28:50;12.20;99.90
17202;DHT22;8717;53.588;10.176;2024-02-15T12:31:21;12.20;99.90
17202;DHT22;8717;53.588;10.176;2024-02-15T12:33:59;12.20;99.90
17202;DHT22;8717;53.588;10.176;2024-02-15T12:36:26;12.20;99.90
17202;DHT22;8717;53.588;10.176;2024-02-15T12:39:05;12.20;99.90
17202;DHT22;8717;53.588;10.176;2024-02-15T12:41:38;12.20;99.90
17202;DHT22;8717;53.588;10.176;2024-02-15T12:44:06;12.20;99.90
17202;DHT22;8717;53.588;10.176;2024-02-15T12:46:37;12.20;99.90
17202;DHT22;8717;53.588;10.176;2024-02-15T12:49:07;12.20;99.90
17202;DHT22;8717;53.588;10.176;2024-02-15T12:51:39;12.20;99.90
17202;DHT22;8717;53.588;10.176;2024-02-15T12:54:09;12.30;99.90
17202;DHT22;8717;53.588;10.176;2024-02-15T12:56:36;12.20;99.90
17202;DHT22;8717;53.588;10.176;2024-02-15T12:59:05;12.20;99.90
17202;DHT22;8717;53.588;10.176;2024-02-15T13:01:32;12.20;99.90
17202;DHT22;8717;53.588;10.176;2024-02-15T13:04:00;12.10;99.90
17202;DHT22;8717;53.588;10.176;2024-02-15T13:06:27;12.10;99.90
17202;DHT22;8717;53.588;10.176;2024-02-15T13:08:54;12.10;99.90
17202;DHT22;8717;53.588;10.176;2024-02-15T13:11:21;12.10;99.90
17202;DHT22;8717;53.588;10.176;2024-02-15T13:13:49;12.10;99.90
17202;DHT22;8717;53.588;10.176;2024-02-15T13:16:15;12.10;99.90
17202;DHT22;8717;53.588;10.176;2024-02-15T13:18:42;12.10;99.90
17202;DHT22;8717;53.588;10.176;2024-02-15T13:21:10;12.10;99.90
17202;DHT22;8717;53.588;10.176;2024-02-15T13:23:37;12.10;99.90
17202;DHT22;8717;53.588;10.176;2024-02-15T13:26:04;12.10;99.90
17202;DHT22;8717;53.588;10.176;2024-02-15T13:28:30;12.10;99.90
17202;DHT22;8717;53.588;10.176;2024-02-15T13:30:57;12.10;99.90
17202;DHT22;8717;53.588;10.176;2024-02-15T13:33:24;12.10;99.90
17202;DHT22;8717;53.588;10.176;2024-02-15T13:35:52;12.00;99.90
17202;DHT22;8717;53.588;10.176;2024-02-15T13:38:20;12.10;99.90
17202;DHT22;8717;53.588;10.176;2024-02-15T13:40:49;12.10;99.90
17202;DHT22;8717;53.588;10.176;2024-02-15T13:43:16;12.10;99.90
17202;DHT22;8717;53.588;10.176;2024-02-15T13:45:44;12.10;99.90
17202;DHT22;8717;53.588;10.176;2024-02-15T13:48:11;12.00;99.90
17202;DHT22;8717;53.588;10.176;2024-02-15T13:50:40;12.00;99.90
17202;DHT22;8717;53.588;10.176;2024-02-15T13:53:08;12.00;99.90
17202;DHT22;8717;53.588;10.176;2024-02-15T13:55:37;12.00;99.90
17202;DHT22;8717;53.588;10.176;2024-02-15T13:58:05;12.00;99.90
17202;DHT22;8717;53.588;10.176;2024-02-15T14:00:33;12.00;99.90
17202;DHT22;8717;53.588;10.176;2024-02-15T14:03:00;12.00;99.90
17202;DHT22;8717;53.588;10.176;2024-02-15T14:05:29;12.00;99.90
17202;DHT22;8717;53.588;10.176;2024-02-15T14:07:58;12.00;99.90
17202;DHT22;8717;53.588;10.176;2024-02-15T14:10:27;12.00;99.90
17202;DHT22;8717;53.588;10.176;2024-02-15T14:12:56;12.00;99.90
17202;DHT22;8717;53.588;10.176;2024-02-15T14:15:23;12.00;99.90
17202;DHT22;8717;53.588;10.176;2024-02-15T14:17:51;12.00;99.90
17202;DHT22;8717;53.588;10.176;2024-02-15T14:20:18;12.00;99.90
17202;DHT22;8717;53.588;10.176;2024-02-15T14:22:47;12.00;99.90
17202;DHT22;8717;53.588;10.176;2024-02-15T14:25:15;12.00;99.90
17202;DHT22;8717;53.588;10.176;2024-02-15T14:27:42;12.00;99.90
17202;DHT22;8717;53.588;10.176;2024-02-15T14:30:11;12.00;99.90
17202;DHT22;8717;53.588;10.176;2024-02-15T14:32:55;12.00;99.90
17202;DHT22;8717;53.588;10.176;2024-02-15T14:35:30;12.00;99.90
17202;DHT22;8717;53.588;10.176;2024-02-15T14:37:57;12.00;99.90
17202;DHT22;8717;53.588;10.176;2024-02-15T14:40:25;12.00;99.90
17202;DHT22;8717;53.588;10.176;2024-02-15T14:42:52;12.00;99.90
17202;DHT22;8717;53.588;10.176;2024-02-15T14:45:21;12.00;99.90
17202;DHT22;8717;53.588;10.176;2024-02-15T14:47:48;12.00;99.90
17202;DHT22;8717;53.588;10.176;2024-02-15T14:50:15;12.00;99.90
17202;DHT22;8717;53.588;10.176;2024-02-15T14:52:41;11.90;99.90
17202;DHT22;8717;53.588;10.176;2024-02-15T14:55:09;12.00;99.90
17202;DHT22;8717;53.588;10.176;2024-02-15T14:57:36;12.00;99.90
17202;DHT22;8717;53.588;10.176;2024-02-15T15:00:05;12.00;99.90
17202;DHT22;8717;53.588;10.176;2024-02-15T15:02:38;12.00;99.90
17202;DHT22;8717;53.588;10.176;2024-02-15T15:05:05;12.00;99.90
17202;DHT22;8717;53.588;10.176;2024-02-15T15:07:50;12.00;99.90
17202;DHT22;8717;53.588;10.176;2024-02-15T15:10:34;12.00;99.90
17202;DHT22;8717;53.588;10.176;2024-02-15T15:13:18;12.00;99.90
17202;DHT22;8717;53.588;10.176;2024-02-15T15:15:45;12.00;99.90
17202;DHT22;8717;53.588;10.176;2024-02-15T15:18:14;12.00;99.90
17202;DHT22;8717;53.588;10.176;2024-02-15T15:20:41;12.00;99.90
17202;DHT22;8717;53.588;10.176;2024-02-15T15:23:08;12.00;99.90
17202;DHT22;8717;53.588;10.176;2024-02-15T15:25:35;12.00;99.90
17202;DHT22;8717;53.588;10.176;2024-02-15T15:28:03;12.00;99.90
17202;DHT22;8717;53.588;10.176;2024-02-15T15:30:30;12.00;99.90
17202;DHT22;8717;53.588;10.176;2024-02-15T15:32:57;12.00;99.90
17202;DHT22;8717;53.588;10.176;2024-02-15T15:35:27;11.90;99.90
17202;DHT22;8717;53.588;10.176;2024-02-15T15:37:55;11.90;99.90
17202;DHT22;8717;53.588;10.176;2024-02-15T15:40:23;11.90;99.90
17202;DHT22;8717;53.588;10.176;2024-02-15T15:42:50;11.90;99.90